Michigan City, IN

1:44 PM CDT on August 29, 2014 (GMT -0500)
Coolspring Township on 400N | Change Station
CLOSE
Current Station
Personal Weather Station
Location: Michigan City, IN
Elevation: 643 ft
Nearby Weather Stations

Elev 643 ft 41.67 °N, 86.87 °W | Updated 0 second ago

Light Rain
Light Rain
78.2 °F
Feels Like 81 °F
N
0.0
Wind Variable Wind from South
Gusts 4.0 mph

Today
High -- | Low -- °F
--% Chance of Precip.
Yesterday
High -- | Low -- °F
Precip. -- in
6:10 AM 7:25 PM
Waxing Crescent, 16% visible
Pressure 30.00 in
Visibility 10.0 miles
Clouds Scattered Clouds 4300 ft
Mostly Cloudy 5000 ft
Mostly Cloudy 6000 ft
Heat Index 81 °F
Dew Point 75 °F
Humidity 90%
Rainfall 0.00 in
Snow Depth Not available.
UV 5 out of 12
Pollen 9.50 out of 12
Air Quality Not available.
Flu Activity Not available.
METAR KMGC 291835Z AUTO 15004KT 10SM -RA SCT043 BKN050 BKN060 24/20 A3000 RMK AO2

More Conditions Fewer Conditions

Pressure 30.00 in
Visibility 10.0 miles
Clouds Scattered Clouds 4300 ft
Mostly Cloudy 5000 ft
Mostly Cloudy 6000 ft
Heat Index 81 °F
Dew Point 75 °F
Humidity 90%
Rainfall 0.00 in
Snow Depth Not available.
UV 5 out of 12
Pollen 9.50 out of 12
Air Quality Not available.
Flu Activity Not available.
METAR KMGC 291835Z AUTO 15004KT 10SM -RA SCT043 BKN050 BKN060 24/20 A3000 RMK AO2

More Conditions Fewer Conditions

10-Day Weather Forecast

Almanac

Astronomy

Aug. 29, 2014 Rise Set
Actual Time 6:10 AM CDT 7:25 PM CDT
Civil Twilight 5:41 AM CDT 7:54 PM CDT
Nautical Twilight 5:07 AM CDT 8:28 PM CDT
Astronomical Twilight 4:30 AM CDT 9:04 PM CDT
Moon 10:03 AM CDT 9:19 PM CDT
Length of Visible Light 14h 12m
Length of Day
13h 15m
Tomorrow will be 2m 39s shorter.
Waxing Crescent, 16% of the Moon is Illuminated
Today
Waxing Crescent
Sep 2
First Quarter
Sep 8
Full
Sep 15
Last Quarter
Sep 24
New

Today's Extremes

State Highs State Lows

Community

WunderPhotos

Upload Photos

1,748,314 photos uploaded!

Nearby

Snow Depth

Station Depth Elevation
No new snow has been reported.

Earthquake Activity

City Distance Mag. Time & Date
No recent earthquake activity has been reported nearby.
Minimum magnitude displayed is 2.5.

Coastal Water Temperatures

Place Temperature
No Stations Reporting

Nearby Weather Stations